sensor_id;sensor_type;location;lat;lon;timestamp;temperature;humidity
2897;DHT22;1458;49.728;9.228;2022-09-09T00:02:19;14.80;99.90
2897;DHT22;1458;49.728;9.228;2022-09-09T00:04:58;14.70;99.90
2897;DHT22;1458;49.728;9.228;2022-09-09T00:07:38;14.70;99.90
2897;DHT22;1458;49.728;9.228;2022-09-09T00:10:16;14.50;99.90
2897;DHT22;1458;49.728;9.228;2022-09-09T00:12:54;14.60;99.90
2897;DHT22;1458;49.728;9.228;2022-09-09T00:15:41;14.70;99.90
2897;DHT22;1458;49.728;9.228;2022-09-09T00:18:18;14.80;99.90
2897;DHT22;1458;49.728;9.228;2022-09-09T00:20:57;14.80;99.90
2897;DHT22;1458;49.728;9.228;2022-09-09T00:23:32;14.80;99.90
2897;DHT22;1458;49.728;9.228;2022-09-09T00:26:12;14.60;99.90
2897;DHT22;1458;49.728;9.228;2022-09-09T00:28:48;14.90;99.90
2897;DHT22;1458;49.728;9.228;2022-09-09T00:31:25;14.80;99.90
2897;DHT22;1458;49.728;9.228;2022-09-09T00:33:55;14.80;99.90
2897;DHT22;1458;49.728;9.228;2022-09-09T00:36:27;14.70;99.90
2897;DHT22;1458;49.728;9.228;2022-09-09T00:38:58;14.70;99.90
2897;DHT22;1458;49.728;9.228;2022-09-09T00:41:34;14.60;99.90
2897;DHT22;1458;49.728;9.228;2022-09-09T00:44:20;14.50;99.90
2897;DHT22;1458;49.728;9.228;2022-09-09T00:47:15;14.50;99.90
2897;DHT22;1458;49.728;9.228;2022-09-09T00:50:00;14.40;99.90
2897;DHT22;1458;49.728;9.228;2022-09-09T00:52:39;14.40;99.90
2897;DHT22;1458;49.728;9.228;2022-09-09T00:55:16;14.50;99.90
2897;DHT22;1458;49.728;9.228;2022-09-09T00:57:47;14.50;99.90
2897;DHT22;1458;49.728;9.228;2022-09-09T01:00:21;14.50;99.90
2897;DHT22;1458;49.728;9.228;2022-09-09T01:03:16;14.50;99.90
2897;DHT22;1458;49.728;9.228;2022-09-09T01:06:11;14.40;99.90
2897;DHT22;1458;49.728;9.228;2022-09-09T01:11:49;14.20;99.90
2897;DHT22;1458;49.728;9.228;2022-09-09T01:14:38;14.40;99.90
2897;DHT22;1458;49.728;9.228;2022-09-09T01:17:13;14.40;99.90
2897;DHT22;1458;49.728;9.228;2022-09-09T01:20:02;14.40;99.90
2897;DHT22;1458;49.728;9.228;2022-09-09T01:22:44;14.40;99.90
2897;DHT22;1458;49.728;9.228;2022-09-09T01:28:32;14.60;99.90
2897;DHT22;1458;49.728;9.228;2022-09-09T01:31:06;14.50;99.90
2897;DHT22;1458;49.728;9.228;2022-09-09T01:33:41;14.60;99.90
2897;DHT22;1458;49.728;9.228;2022-09-09T01:36:12;14.70;99.90
2897;DHT22;1458;49.728;9.228;2022-09-09T01:38:50;14.80;99.90
2897;DHT22;1458;49.728;9.228;2022-09-09T01:41:20;14.80;99.90
2897;DHT22;1458;49.728;9.228;2022-09-09T01:43:57;14.80;99.90
2897;DHT22;1458;49.728;9.228;2022-09-09T01:46:25;14.90;99.90
2897;DHT22;1458;49.728;9.228;2022-09-09T01:48:56;14.80;99.90
2897;DHT22;1458;49.728;9.228;2022-09-09T01:51:25;14.80;99.90
2897;DHT22;1458;49.728;9.228;2022-09-09T01:53:52;14.70;99.90
2897;DHT22;1458;49.728;9.228;2022-09-09T01:56:35;14.80;99.90
2897;DHT22;1458;49.728;9.228;2022-09-09T01:59:24;14.80;99.90
2897;DHT22;1458;49.728;9.228;2022-09-09T02:02:09;14.80;99.90
2897;DHT22;1458;49.728;9.228;2022-09-09T02:04:48;14.90;99.90
2897;DHT22;1458;49.728;9.228;2022-09-09T02:07:37;15.00;99.90
2897;DHT22;1458;49.728;9.228;2022-09-09T02:10:17;15.10;99.90
2897;DHT22;1458;49.728;9.228;2022-09-09T02:13:08;15.10;99.90
2897;DHT22;1458;49.728;9.228;2022-09-09T02:15:45;15.10;99.90
2897;DHT22;1458;49.728;9.228;2022-09-09T02:18:22;15.00;99.90
2897;DHT22;1458;49.728;9.228;2022-09-09T02:20:53;14.90;99.90
2897;DHT22;1458;49.728;9.228;2022-09-09T02:23:21;14.90;99.90
2897;DHT22;1458;49.728;9.228;2022-09-09T02:25:53;14.90;99.90
2897;DHT22;1458;49.728;9.228;2022-09-09T02:28:32;14.80;99.90
2897;DHT22;1458;49.728;9.228;2022-09-09T02:31:00;14.90;99.90
2897;DHT22;1458;49.728;9.228;2022-09-09T02:33:40;14.90;99.90
2897;DHT22;1458;49.728;9.228;2022-09-09T02:36:11;14.90;99.90
2897;DHT22;1458;49.728;9.228;2022-09-09T02:38:47;14.90;99.90
2897;DHT22;1458;49.728;9.228;2022-09-09T02:41:24;14.90;99.90
2897;DHT22;1458;49.728;9.228;2022-09-09T02:43:56;14.90;99.90
2897;DHT22;1458;49.728;9.228;2022-09-09T02:46:36;14.80;99.90
2897;DHT22;1458;49.728;9.228;2022-09-09T02:49:27;14.70;99.90
2897;DHT22;1458;49.728;9.228;2022-09-09T02:52:00;14.70;99.90
2897;DHT22;1458;49.728;9.228;2022-09-09T02:54:34;14.70;99.90
2897;DHT22;1458;49.728;9.228;2022-09-09T02:57:11;14.60;99.90
2897;DHT22;1458;49.728;9.228;2022-09-09T02:59:43;14.60;99.90
2897;DHT22;1458;49.728;9.228;2022-09-09T03:02:12;14.50;99.90
2897;DHT22;1458;49.728;9.228;2022-09-09T03:04:41;14.50;99.90
2897;DHT22;1458;49.728;9.228;2022-09-09T03:07:12;14.50;99.90
2897;DHT22;1458;49.728;9.228;2022-09-09T03:09:41;14.70;99.90
2897;DHT22;1458;49.728;9.228;2022-09-09T03:12:09;14.60;99.90
2897;DHT22;1458;49.728;9.228;2022-09-09T03:14:38;14.60;99.90
2897;DHT22;1458;49.728;9.228;2022-09-09T03:17:08;14.80;99.90
2897;DHT22;1458;49.728;9.228;2022-09-09T03:19:41;14.80;99.90
2897;DHT22;1458;49.728;9.228;2022-09-09T03:22:18;14.80;99.90
2897;DHT22;1458;49.728;9.228;2022-09-09T03:24:48;14.80;99.90
2897;DHT22;1458;49.728;9.228;2022-09-09T03:27:16;14.80;99.90
2897;DHT22;1458;49.728;9.228;2022-09-09T03:29:45;14.80;99.90
2897;DHT22;1458;49.728;9.228;2022-09-09T03:32:21;14.90;99.90
2897;DHT22;1458;49.728;9.228;2022-09-09T03:34:49;15.00;99.90
2897;DHT22;1458;49.728;9.228;2022-09-09T03:37:18;15.00;99.90
2897;DHT22;1458;49.728;9.228;2022-09-09T03:39:48;14.90;99.90
2897;DHT22;1458;49.728;9.228;2022-09-09T03:42:18;14.90;99.90
2897;DHT22;1458;49.728;9.228;2022-09-09T03:44:49;14.90;99.90
2897;DHT22;1458;49.728;9.228;2022-09-09T03:47:21;14.80;99.90
2897;DHT22;1458;49.728;9.228;2022-09-09T03:49:51;14.70;99.90
2897;DHT22;1458;49.728;9.228;2022-09-09T03:52:19;14.70;99.90
2897;DHT22;1458;49.728;9.228;2022-09-09T03:54:48;14.50;99.90
2897;DHT22;1458;49.728;9.228;2022-09-09T03:57:17;14.50;99.90
2897;DHT22;1458;49.728;9.228;2022-09-09T03:59:45;14.40;99.90
2897;DHT22;1458;49.728;9.228;2022-09-09T04:02:14;14.30;99.90
2897;DHT22;1458;49.728;9.228;2022-09-09T04:04:43;14.20;99.90
2897;DHT22;1458;49.728;9.228;2022-09-09T04:07:10;14.20;99.90
2897;DHT22;1458;49.728;9.228;2022-09-09T04:09:39;14.10;99.90
2897;DHT22;1458;49.728;9.228;2022-09-09T04:12:08;14.10;99.90
2897;DHT22;1458;49.728;9.228;2022-09-09T04:14:39;13.90;99.90
2897;DHT22;1458;49.728;9.228;2022-09-09T04:17:07;14.00;99.90
2897;DHT22;1458;49.728;9.228;2022-09-09T04:19:35;13.90;99.90
2897;DHT22;1458;49.728;9.228;2022-09-09T04:22:05;13.70;99.90
2897;DHT22;1458;49.728;9.228;2022-09-09T04:24:33;13.50;99.90
2897;DHT22;1458;49.728;9.228;2022-09-09T04:27:01;13.40;99.90
2897;DHT22;1458;49.728;9.228;2022-09-09T04:29:29;13.60;99.90
2897;DHT22;1458;49.728;9.228;2022-09-09T04:31:56;13.80;99.90
2897;DHT22;1458;49.728;9.228;2022-09-09T04:34:24;13.70;99.90
2897;DHT22;1458;49.728;9.228;2022-09-09T04:36:52;13.70;99.90
2897;DHT22;1458;49.728;9.228;2022-09-09T04:39:22;13.70;99.90
2897;DHT22;1458;49.728;9.228;2022-09-09T04:41:55;13.60;99.90
2897;DHT22;1458;49.728;9.228;2022-09-09T04:44:23;13.50;99.90
2897;DHT22;1458;49.728;9.228;2022-09-09T04:46:52;13.40;99.90
2897;DHT22;1458;49.728;9.228;2022-09-09T04:49:23;13.40;99.90
2897;DHT22;1458;49.728;9.228;2022-09-09T04:51:51;13.40;99.90
2897;DHT22;1458;49.728;9.228;2022-09-09T04:54:19;13.40;99.90
2897;DHT22;1458;49.728;9.228;2022-09-09T04:56:49;13.50;99.90
2897;DHT22;1458;49.728;9.228;2022-09-09T04:59:18;13.60;99.90
2897;DHT22;1458;49.728;9.228;2022-09-09T05:01:53;13.70;99.90
2897;DHT22;1458;49.728;9.228;2022-09-09T05:04:21;13.90;99.90
2897;DHT22;1458;49.728;9.228;2022-09-09T05:06:50;14.10;99.90
2897;DHT22;1458;49.728;9.228;2022-09-09T05:09:18;14.30;99.90
2897;DHT22;1458;49.728;9.228;2022-09-09T05:11:47;14.40;99.90
2897;DHT22;1458;49.728;9.228;2022-09-09T05:14:26;14.50;99.90
2897;DHT22;1458;49.728;9.228;2022-09-09T05:16:54;14.50;99.90
2897;DHT22;1458;49.728;9.228;2022-09-09T05:19:23;14.60;99.90
2897;DHT22;1458;49.728;9.228;2022-09-09T05:21:52;14.50;99.90
2897;DHT22;1458;49.728;9.228;2022-09-09T05:24:26;14.60;99.90
2897;DHT22;1458;49.728;9.228;2022-09-09T05:26:58;14.60;99.90
2897;DHT22;1458;49.728;9.228;2022-09-09T05:29:30;14.80;99.90
2897;DHT22;1458;49.728;9.228;2022-09-09T05:31:59;14.70;99.90
2897;DHT22;1458;49.728;9.228;2022-09-09T05:34:29;14.80;99.90
2897;DHT22;1458;49.728;9.228;2022-09-09T05:36:57;14.90;99.90
2897;DHT22;1458;49.728;9.228;2022-09-09T05:39:27;14.80;99.90
2897;DHT22;1458;49.728;9.228;2022-09-09T05:41:55;14.90;99.90
2897;DHT22;1458;49.728;9.228;2022-09-09T05:44:26;15.00;99.90
2897;DHT22;1458;49.728;9.228;2022-09-09T05:46:55;15.10;99.90
2897;DHT22;1458;49.728;9.228;2022-09-09T05:49:24;15.20;99.90
2897;DHT22;1458;49.728;9.228;2022-09-09T05:51:51;15.20;99.90
2897;DHT22;1458;49.728;9.228;2022-09-09T05:54:21;15.10;99.90
2897;DHT22;1458;49.728;9.228;2022-09-09T05:56:51;15.20;99.90
2897;DHT22;1458;49.728;9.228;2022-09-09T05:59:20;15.20;99.90
2897;DHT22;1458;49.728;9.228;2022-09-09T06:01:53;15.20;99.90
2897;DHT22;1458;49.728;9.228;2022-09-09T06:04:32;15.20;99.90
2897;DHT22;1458;49.728;9.228;2022-09-09T06:07:01;15.40;99.90
2897;DHT22;1458;49.728;9.228;2022-09-09T06:09:30;15.50;99.90
2897;DHT22;1458;49.728;9.228;2022-09-09T06:11:57;15.60;99.90
2897;DHT22;1458;49.728;9.228;2022-09-09T06:14:25;16.00;99.90
2897;DHT22;1458;49.728;9.228;2022-09-09T06:16:57;16.60;99.90
2897;DHT22;1458;49.728;9.228;2022-09-09T06:19:28;16.90;99.90
2897;DHT22;1458;49.728;9.228;2022-09-09T06:21:58;16.90;99.90
2897;DHT22;1458;49.728;9.228;2022-09-09T06:24:26;17.10;99.90
2897;DHT22;1458;49.728;9.228;2022-09-09T06:26:56;17.00;99.90
2897;DHT22;1458;49.728;9.228;2022-09-09T06:29:27;16.90;99.90
2897;DHT22;1458;49.728;9.228;2022-09-09T06:31:56;16.80;99.90
2897;DHT22;1458;49.728;9.228;2022-09-09T06:34:26;16.50;99.90
2897;DHT22;1458;49.728;9.228;2022-09-09T06:36:56;16.50;99.90
2897;DHT22;1458;49.728;9.228;2022-09-09T06:39:24;16.50;99.90
2897;DHT22;1458;49.728;9.228;2022-09-09T06:41:52;16.50;99.90
2897;DHT22;1458;49.728;9.228;2022-09-09T06:44:40;16.60;99.90
2897;DHT22;1458;49.728;9.228;2022-09-09T06:47:14;16.80;99.90
2897;DHT22;1458;49.728;9.228;2022-09-09T06:49:42;17.30;99.90
2897;DHT22;1458;49.728;9.228;2022-09-09T06:52:10;17.70;99.90
2897;DHT22;1458;49.728;9.228;2022-09-09T06:54:38;17.90;99.90
2897;DHT22;1458;49.728;9.228;2022-09-09T06:57:06;18.00;99.90
2897;DHT22;1458;49.728;9.228;2022-09-09T06:59:34;18.50;99.90
2897;DHT22;1458;49.728;9.228;2022-09-09T07:02:02;19.00;97.60
2897;DHT22;1458;49.728;9.228;2022-09-09T07:04:32;18.90;96.40
2897;DHT22;1458;49.728;9.228;2022-09-09T07:06:59;18.60;96.80
2897;DHT22;1458;49.728;9.228;2022-09-09T07:09:28;18.20;97.60
2897;DHT22;1458;49.728;9.228;2022-09-09T07:11:57;18.00;97.40
2897;DHT22;1458;49.728;9.228;2022-09-09T07:14:27;17.70;98.40
2897;DHT22;1458;49.728;9.228;2022-09-09T07:16:59;17.50;99.40
2897;DHT22;1458;49.728;9.228;2022-09-09T07:19:32;17.50;99.60
2897;DHT22;1458;49.728;9.228;2022-09-09T07:22:03;17.40;99.80
2897;DHT22;1458;49.728;9.228;2022-09-09T07:24:34;17.40;99.90
2897;DHT22;1458;49.728;9.228;2022-09-09T07:27:02;17.40;99.90
2897;DHT22;1458;49.728;9.228;2022-09-09T07:29:31;17.30;99.90
2897;DHT22;1458;49.728;9.228;2022-09-09T07:32:01;17.30;99.90
2897;DHT22;1458;49.728;9.228;2022-09-09T07:34:35;17.80;99.90
2897;DHT22;1458;49.728;9.228;2022-09-09T07:37:03;18.30;99.90
2897;DHT22;1458;49.728;9.228;2022-09-09T07:39:32;18.60;99.90
2897;DHT22;1458;49.728;9.228;2022-09-09T07:42:00;18.70;98.50
2897;DHT22;1458;49.728;9.228;2022-09-09T07:44:28;19.00;98.60
2897;DHT22;1458;49.728;9.228;2022-09-09T07:47:03;19.40;97.50
2897;DHT22;1458;49.728;9.228;2022-09-09T07:49:39;20.10;96.50
2897;DHT22;1458;49.728;9.228;2022-09-09T07:52:09;20.70;94.50
2897;DHT22;1458;49.728;9.228;2022-09-09T07:54:41;20.40;92.40
2897;DHT22;1458;49.728;9.228;2022-09-09T07:57:10;20.20;92.70
2897;DHT22;1458;49.728;9.228;2022-09-09T07:59:38;20.10;92.90
2897;DHT22;1458;49.728;9.228;2022-09-09T08:02:09;20.10;92.60
2897;DHT22;1458;49.728;9.228;2022-09-09T08:04:41;20.00;92.20
2897;DHT22;1458;49.728;9.228;2022-09-09T08:07:09;19.90;92.80
2897;DHT22;1458;49.728;9.228;2022-09-09T08:09:44;19.70;92.60
2897;DHT22;1458;49.728;9.228;2022-09-09T08:12:18;19.80;92.80
2897;DHT22;1458;49.728;9.228;2022-09-09T08:14:46;20.10;93.80
2897;DHT22;1458;49.728;9.228;2022-09-09T08:17:14;20.60;93.00
2897;DHT22;1458;49.728;9.228;2022-09-09T08:19:44;20.80;91.40
2897;DHT22;1458;49.728;9.228;2022-09-09T08:22:16;20.40;90.90
2897;DHT22;1458;49.728;9.228;2022-09-09T08:24:45;20.70;91.60
2897;DHT22;1458;49.728;9.228;2022-09-09T08:27:13;20.90;90.60
2897;DHT22;1458;49.728;9.228;2022-09-09T08:29:40;21.00;90.60
2897;DHT22;1458;49.728;9.228;2022-09-09T08:32:08;21.20;89.90
2897;DHT22;1458;49.728;9.228;2022-09-09T08:34:37;21.40;88.90
2897;DHT22;1458;49.728;9.228;2022-09-09T08:37:10;21.60;89.10
2897;DHT22;1458;49.728;9.228;2022-09-09T08:39:40;21.90;87.40
2897;DHT22;1458;49.728;9.228;2022-09-09T08:42:38;21.80;83.90
2897;DHT22;1458;49.728;9.228;2022-09-09T08:45:27;21.90;85.50
2897;DHT22;1458;49.728;9.228;2022-09-09T08:48:18;21.60;83.60
2897;DHT22;1458;49.728;9.228;2022-09-09T08:51:07;21.40;83.60
2897;DHT22;1458;49.728;9.228;2022-09-09T08:53:54;21.60;83.10
2897;DHT22;1458;49.728;9.228;2022-09-09T08:56:24;21.50;83.80
2897;DHT22;1458;49.728;9.228;2022-09-09T08:58:56;21.60;82.60
2897;DHT22;1458;49.728;9.228;2022-09-09T09:01:44;21.30;82.70
2897;DHT22;1458;49.728;9.228;2022-09-09T09:04:51;21.00;83.50
2897;DHT22;1458;49.728;9.228;2022-09-09T09:07:35;20.90;83.50
2897;DHT22;1458;49.728;9.228;2022-09-09T09:10:34;21.00;84.30
2897;DHT22;1458;49.728;9.228;2022-09-09T09:13:14;21.10;84.90
2897;DHT22;1458;49.728;9.228;2022-09-09T09:15:44;21.40;86.80
2897;DHT22;1458;49.728;9.228;2022-09-09T09:18:14;21.90;84.10
2897;DHT22;1458;49.728;9.228;2022-09-09T09:20:50;22.40;81.20
2897;DHT22;1458;49.728;9.228;2022-09-09T09:23:24;22.60;78.10
2897;DHT22;1458;49.728;9.228;2022-09-09T09:25:59;22.70;76.40
2897;DHT22;1458;49.728;9.228;2022-09-09T09:28:33;22.70;75.30
2897;DHT22;1458;49.728;9.228;2022-09-09T09:31:10;22.40;74.60
2897;DHT22;1458;49.728;9.228;2022-09-09T09:33:47;21.80;76.10
2897;DHT22;1458;49.728;9.228;2022-09-09T09:36:20;21.20;79.70
2897;DHT22;1458;49.728;9.228;2022-09-09T09:38:54;20.40;90.90
2897;DHT22;1458;49.728;9.228;2022-09-09T09:41:36;19.20;95.90
2897;DHT22;1458;49.728;9.228;2022-09-09T09:46:51;17.90;99.30
2897;DHT22;1458;49.728;9.228;2022-09-09T09:49:19;17.80;99.40
2897;DHT22;1458;49.728;9.228;2022-09-09T09:51:47;17.80;99.90
2897;DHT22;1458;49.728;9.228;2022-09-09T09:54:21;18.00;99.90
2897;DHT22;1458;49.728;9.228;2022-09-09T09:57:08;18.40;99.90
2897;DHT22;1458;49.728;9.228;2022-09-09T09:59:37;18.60;99.90
2897;DHT22;1458;49.728;9.228;2022-09-09T10:02:16;18.60;99.90
2897;DHT22;1458;49.728;9.228;2022-09-09T10:04:48;18.60;99.90
2897;DHT22;1458;49.728;9.228;2022-09-09T10:07:19;18.90;99.90
2897;DHT22;1458;49.728;9.228;2022-09-09T10:09:54;19.10;99.90
2897;DHT22;1458;49.728;9.228;2022-09-09T10:12:36;19.10;99.90
2897;DHT22;1458;49.728;9.228;2022-09-09T10:15:23;19.00;99.90
2897;DHT22;1458;49.728;9.228;2022-09-09T10:18:15;18.80;99.90
2897;DHT22;1458;49.728;9.228;2022-09-09T10:20:56;19.10;99.90
2897;DHT22;1458;49.728;9.228;2022-09-09T10:23:46;19.50;99.90
2897;DHT22;1458;49.728;9.228;2022-09-09T10:26:32;19.50;97.60
2897;DHT22;1458;49.728;9.228;2022-09-09T10:29:22;19.60;97.40
2897;DHT22;1458;49.728;9.228;2022-09-09T10:32:10;19.60;98.50
2897;DHT22;1458;49.728;9.228;2022-09-09T10:34:56;19.90;97.10
2897;DHT22;1458;49.728;9.228;2022-09-09T10:37:41;19.80;94.90
2897;DHT22;1458;49.728;9.228;2022-09-09T10:40:26;19.80;94.50
2897;DHT22;1458;49.728;9.228;2022-09-09T10:43:07;20.30;96.70
2897;DHT22;1458;49.728;9.228;2022-09-09T10:45:49;20.80;94.90
2897;DHT22;1458;49.728;9.228;2022-09-09T10:48:43;21.00;92.00
2897;DHT22;1458;49.728;9.228;2022-09-09T10:51:28;21.10;90.70
2897;DHT22;1458;49.728;9.228;2022-09-09T10:54:16;20.90;91.30
2897;DHT22;1458;49.728;9.228;2022-09-09T10:56:55;20.90;91.80
2897;DHT22;1458;49.728;9.228;2022-09-09T10:59:28;20.60;94.30
2897;DHT22;1458;49.728;9.228;2022-09-09T11:02:01;20.60;94.30
2897;DHT22;1458;49.728;9.228;2022-09-09T11:04:34;20.40;94.20
2897;DHT22;1458;49.728;9.228;2022-09-09T11:07:08;20.30;94.50
2897;DHT22;1458;49.728;9.228;2022-09-09T11:09:40;20.30;94.20
2897;DHT22;1458;49.728;9.228;2022-09-09T11:12:17;20.30;93.40
2897;DHT22;1458;49.728;9.228;2022-09-09T11:14:50;20.10;96.20
2897;DHT22;1458;49.728;9.228;2022-09-09T11:17:26;20.50;97.50
2897;DHT22;1458;49.728;9.228;2022-09-09T11:19:59;21.00;95.40
2897;DHT22;1458;49.728;9.228;2022-09-09T11:22:29;21.60;95.60
2897;DHT22;1458;49.728;9.228;2022-09-09T11:25:01;21.50;92.40
2897;DHT22;1458;49.728;9.228;2022-09-09T11:27:44;21.40;91.60
2897;DHT22;1458;49.728;9.228;2022-09-09T11:30:37;21.60;92.90
2897;DHT22;1458;49.728;9.228;2022-09-09T11:36:55;21.60;90.40
2897;DHT22;1458;49.728;9.228;2022-09-09T11:39:57;21.50;86.50
2897;DHT22;1458;49.728;9.228;2022-09-09T11:42:30;21.50;87.30
2897;DHT22;1458;49.728;9.228;2022-09-09T11:44:57;21.10;85.00
2897;DHT22;1458;49.728;9.228;2022-09-09T11:47:37;21.00;86.60
2897;DHT22;1458;49.728;9.228;2022-09-09T11:50:22;20.90;88.10
2897;DHT22;1458;49.728;9.228;2022-09-09T11:53:05;20.90;90.10
2897;DHT22;1458;49.728;9.228;2022-09-09T11:55:47;21.10;87.20
2897;DHT22;1458;49.728;9.228;2022-09-09T11:58:16;20.80;88.60
2897;DHT22;1458;49.728;9.228;2022-09-09T12:00:48;21.00;90.50
2897;DHT22;1458;49.728;9.228;2022-09-09T12:03:36;21.10;88.70
2897;DHT22;1458;49.728;9.228;2022-09-09T12:06:15;20.80;88.10
2897;DHT22;1458;49.728;9.228;2022-09-09T12:08:48;20.80;81.00
2897;DHT22;1458;49.728;9.228;2022-09-09T12:11:25;20.80;81.20
2897;DHT22;1458;49.728;9.228;2022-09-09T12:13:54;21.00;84.50
2897;DHT22;1458;49.728;9.228;2022-09-09T12:16:31;21.00;84.80
2897;DHT22;1458;49.728;9.228;2022-09-09T12:19:15;20.80;83.30
2897;DHT22;1458;49.728;9.228;2022-09-09T12:21:51;20.90;80.20
2897;DHT22;1458;49.728;9.228;2022-09-09T12:24:29;21.00;79.90
2897;DHT22;1458;49.728;9.228;2022-09-09T12:27:07;21.20;81.00
2897;DHT22;1458;49.728;9.228;2022-09-09T12:29:43;21.20;78.80
2897;DHT22;1458;49.728;9.228;2022-09-09T12:32:16;21.20;75.80
2897;DHT22;1458;49.728;9.228;2022-09-09T12:34:47;21.50;75.20
2897;DHT22;1458;49.728;9.228;2022-09-09T12:37:27;22.20;70.90
2897;DHT22;1458;49.728;9.228;2022-09-09T12:39:59;22.40;69.70
2897;DHT22;1458;49.728;9.228;2022-09-09T12:42:28;22.30;68.90
2897;DHT22;1458;49.728;9.228;2022-09-09T12:44:57;22.20;68.10
2897;DHT22;1458;49.728;9.228;2022-09-09T12:47:30;22.10;68.20
2897;DHT22;1458;49.728;9.228;2022-09-09T12:50:05;22.30;66.40
2897;DHT22;1458;49.728;9.228;2022-09-09T12:52:44;22.40;65.60
2897;DHT22;1458;49.728;9.228;2022-09-09T12:55:18;22.30;64.80
2897;DHT22;1458;49.728;9.228;2022-09-09T12:57:48;22.50;65.60
2897;DHT22;1458;49.728;9.228;2022-09-09T13:00:20;22.30;65.10
2897;DHT22;1458;49.728;9.228;2022-09-09T13:02:51;22.50;65.40
2897;DHT22;1458;49.728;9.228;2022-09-09T13:05:22;22.60;64.40
2897;DHT22;1458;49.728;9.228;2022-09-09T13:07:59;22.60;63.70
2897;DHT22;1458;49.728;9.228;2022-09-09T13:10:30;22.40;63.60
2897;DHT22;1458;49.728;9.228;2022-09-09T13:13:01;22.20;66.20
2897;DHT22;1458;49.728;9.228;2022-09-09T13:15:29;22.10;66.10
2897;DHT22;1458;49.728;9.228;2022-09-09T13:17:58;21.90;65.70
2897;DHT22;1458;49.728;9.228;2022-09-09T13:20:34;21.80;65.70
2897;DHT22;1458;49.728;9.228;2022-09-09T13:23:03;21.60;65.60
2897;DHT22;1458;49.728;9.228;2022-09-09T13:25:31;21.40;65.70
2897;DHT22;1458;49.728;9.228;2022-09-09T13:28:02;21.10;66.20
2897;DHT22;1458;49.728;9.228;2022-09-09T13:30:33;21.00;67.60
2897;DHT22;1458;49.728;9.228;2022-09-09T13:33:18;20.80;70.10
2897;DHT22;1458;49.728;9.228;2022-09-09T13:35:53;20.30;76.20
2897;DHT22;1458;49.728;9.228;2022-09-09T13:38:23;19.00;91.10
2897;DHT22;1458;49.728;9.228;2022-09-09T13:40:57;18.00;96.90
2897;DHT22;1458;49.728;9.228;2022-09-09T13:43:27;17.30;99.00
2897;DHT22;1458;49.728;9.228;2022-09-09T13:45:56;17.10;99.90
2897;DHT22;1458;49.728;9.228;2022-09-09T13:48:25;17.30;99.90
2897;DHT22;1458;49.728;9.228;2022-09-09T13:50:55;17.90;99.90
2897;DHT22;1458;49.728;9.228;2022-09-09T13:53:25;18.20;99.90
2897;DHT22;1458;49.728;9.228;2022-09-09T13:55:53;18.50;99.90
2897;DHT22;1458;49.728;9.228;2022-09-09T13:58:22;18.50;99.90
2897;DHT22;1458;49.728;9.228;2022-09-09T14:00:51;18.60;99.90
2897;DHT22;1458;49.728;9.228;2022-09-09T14:03:19;18.50;99.90
2897;DHT22;1458;49.728;9.228;2022-09-09T14:05:49;18.50;99.90
2897;DHT22;1458;49.728;9.228;2022-09-09T14:08:26;18.60;99.90
2897;DHT22;1458;49.728;9.228;2022-09-09T14:10:54;18.60;99.90
2897;DHT22;1458;49.728;9.228;2022-09-09T14:13:24;18.70;99.90
2897;DHT22;1458;49.728;9.228;2022-09-09T14:15:51;18.60;99.90
2897;DHT22;1458;49.728;9.228;2022-09-09T14:18:19;18.60;99.90
2897;DHT22;1458;49.728;9.228;2022-09-09T14:20:48;18.40;99.90
2897;DHT22;1458;49.728;9.228;2022-09-09T14:23:16;18.30;99.90
2897;DHT22;1458;49.728;9.228;2022-09-09T14:25:45;18.10;99.90
2897;DHT22;1458;49.728;9.228;2022-09-09T14:28:15;17.90;99.90
2897;DHT22;1458;49.728;9.228;2022-09-09T14:30:43;17.70;99.90
2897;DHT22;1458;49.728;9.228;2022-09-09T14:33:12;17.70;99.90
2897;DHT22;1458;49.728;9.228;2022-09-09T14:35:42;17.60;99.90
2897;DHT22;1458;49.728;9.228;2022-09-09T14:38:10;17.50;99.90
2897;DHT22;1458;49.728;9.228;2022-09-09T14:40:38;17.60;99.90
2897;DHT22;1458;49.728;9.228;2022-09-09T14:43:10;17.70;99.90
2897;DHT22;1458;49.728;9.228;2022-09-09T14:45:38;17.70;99.90
2897;DHT22;1458;49.728;9.228;2022-09-09T14:48:05;17.80;99.90
2897;DHT22;1458;49.728;9.228;2022-09-09T14:50:33;18.00;99.90
2897;DHT22;1458;49.728;9.228;2022-09-09T14:53:05;18.20;99.90
2897;DHT22;1458;49.728;9.228;2022-09-09T14:55:36;18.40;99.90
2897;DHT22;1458;49.728;9.228;2022-09-09T14:58:08;18.60;99.90
2897;DHT22;1458;49.728;9.228;2022-09-09T15:00:36;18.80;99.90
2897;DHT22;1458;49.728;9.228;2022-09-09T15:03:04;19.20;99.90
2897;DHT22;1458;49.728;9.228;2022-09-09T15:05:31;19.70;99.90
2897;DHT22;1458;49.728;9.228;2022-09-09T15:07:59;20.00;99.90
2897;DHT22;1458;49.728;9.228;2022-09-09T15:10:26;20.00;97.40
2897;DHT22;1458;49.728;9.228;2022-09-09T15:12:54;19.90;97.10
2897;DHT22;1458;49.728;9.228;2022-09-09T15:15:24;19.60;97.00
2897;DHT22;1458;49.728;9.228;2022-09-09T15:17:52;19.50;97.70
2897;DHT22;1458;49.728;9.228;2022-09-09T15:20:19;19.40;97.10
2897;DHT22;1458;49.728;9.228;2022-09-09T15:22:47;19.20;97.90
2897;DHT22;1458;49.728;9.228;2022-09-09T15:25:16;19.10;98.60
2897;DHT22;1458;49.728;9.228;2022-09-09T15:27:44;19.20;98.50
2897;DHT22;1458;49.728;9.228;2022-09-09T15:30:12;19.20;99.60
2897;DHT22;1458;49.728;9.228;2022-09-09T15:32:41;19.30;99.90
2897;DHT22;1458;49.728;9.228;2022-09-09T15:35:09;19.30;98.50
2897;DHT22;1458;49.728;9.228;2022-09-09T15:37:38;19.30;95.50
2897;DHT22;1458;49.728;9.228;2022-09-09T15:40:06;19.20;95.40
2897;DHT22;1458;49.728;9.228;2022-09-09T15:42:34;19.20;95.90
2897;DHT22;1458;49.728;9.228;2022-09-09T15:45:01;19.20;96.20
2897;DHT22;1458;49.728;9.228;2022-09-09T15:47:30;19.00;96.20
2897;DHT22;1458;49.728;9.228;2022-09-09T15:50:00;18.90;95.80
2897;DHT22;1458;49.728;9.228;2022-09-09T15:52:28;18.90;96.20
2897;DHT22;1458;49.728;9.228;2022-09-09T15:54:55;18.80;99.80
2897;DHT22;1458;49.728;9.228;2022-09-09T15:57:22;18.70;99.60
2897;DHT22;1458;49.728;9.228;2022-09-09T15:59:50;18.60;99.90
2897;DHT22;1458;49.728;9.228;2022-09-09T16:02:17;18.60;99.90
2897;DHT22;1458;49.728;9.228;2022-09-09T16:04:45;18.50;99.90
2897;DHT22;1458;49.728;9.228;2022-09-09T16:07:17;18.50;99.90
2897;DHT22;1458;49.728;9.228;2022-09-09T16:09:45;18.30;99.90
2897;DHT22;1458;49.728;9.228;2022-09-09T16:12:12;18.10;99.90
2897;DHT22;1458;49.728;9.228;2022-09-09T16:14:40;17.90;99.90
2897;DHT22;1458;49.728;9.228;2022-09-09T16:17:07;17.70;99.90
2897;DHT22;1458;49.728;9.228;2022-09-09T16:19:35;17.70;99.90
2897;DHT22;1458;49.728;9.228;2022-09-09T16:22:03;17.60;99.90
2897;DHT22;1458;49.728;9.228;2022-09-09T16:24:33;17.50;99.90
2897;DHT22;1458;49.728;9.228;2022-09-09T16:27:01;17.50;99.90
2897;DHT22;1458;49.728;9.228;2022-09-09T16:29:28;17.40;99.90
2897;DHT22;1458;49.728;9.228;2022-09-09T16:31:56;17.40;99.90
2897;DHT22;1458;49.728;9.228;2022-09-09T16:34:24;17.50;99.90
2897;DHT22;1458;49.728;9.228;2022-09-09T16:36:52;17.60;99.90
2897;DHT22;1458;49.728;9.228;2022-09-09T16:39:20;17.60;99.90
2897;DHT22;1458;49.728;9.228;2022-09-09T16:41:49;17.70;99.90
2897;DHT22;1458;49.728;9.228;2022-09-09T16:44:18;17.60;99.90
2897;DHT22;1458;49.728;9.228;2022-09-09T16:46:46;17.60;99.90
2897;DHT22;1458;49.728;9.228;2022-09-09T16:49:17;17.50;99.90
2897;DHT22;1458;49.728;9.228;2022-09-09T16:51:46;17.30;99.90
2897;DHT22;1458;49.728;9.228;2022-09-09T16:54:16;17.20;99.90